Time;durP1;ratioP1;P1;durP2;ratioP2;P2;SDS_P1;SDS_P2;PMS_P1;PMS_P2;Temp;Humidity;BMP_temperature;BMP_pressure;BME280_temperature;BME280_humidity;BME280_pressure;Samples;Min_cycle;Max_cycle;Signal;HPM_P1;HPM_P2
2022/01/06 00:00:13;;;;;;;8.93;3.00;;;;;;;;;;4954818;28;20109;-68
2022/01/06 00:02:40;;;;;;;8.77;2.67;;;;;;;;;;4954747;28;20055;-67
2022/01/06 00:05:07;;;;;;;9.32;3.00;;;;;;;;;;4954770;28;20130;-67
2022/01/06 00:07:34;;;;;;;8.88;2.63;;;;;;;;;;4954814;28;20142;-68
2022/01/06 00:10:01;;;;;;;7.97;2.75;;;;;;;;;;4954679;28;20055;-67
2022/01/06 00:12:37;;;;;;;8.57;2.85;;;;;;;;;;4954345;28;20059;-67
2022/01/06 00:15:21;;;;;;;14.38;3.65;;;;;;;;;;4954481;29;20051;-67
2022/01/06 00:25:46;;;;;;;;;;;;;;;;;;4954916;29;20462;-67
2022/01/06 00:28:13;;;;;;;7.63;2.67;;;;;;;;;;4954152;29;19922;-67
2022/01/06 00:30:39;;;;;;;15.00;3.22;;;;;;;;;;4954078;28;20086;-67
2022/01/06 00:33:06;;;;;;;5.53;3.13;;;;;;;;;;4954230;28;20101;-67
2022/01/06 00:35:33;;;;;;;10.73;2.80;;;;;;;;;;4954452;28;20458;-67
2022/01/06 00:37:59;;;;;;;5.03;2.60;;;;;;;;;;4954032;28;20118;-67
2022/01/06 00:40:26;;;;;;;9.10;2.65;;;;;;;;;;4954379;28;20072;-68
2022/01/06 00:42:52;;;;;;;5.35;2.72;;;;;;;;;;4953786;28;20051;-67
2022/01/06 00:45:19;;;;;;;10.20;2.83;;;;;;;;;;4954052;28;20059;-67
2022/01/06 00:47:46;;;;;;;6.53;2.83;;;;;;;;;;4954127;28;20082;-68
2022/01/06 00:50:12;;;;;;;7.45;3.45;;;;;;;;;;4954037;28;20051;-67
2022/01/06 00:52:39;;;;;;;10.35;2.50;;;;;;;;;;4953910;28;20047;-67
2022/01/06 00:55:06;;;;;;;10.25;2.55;;;;;;;;;;4953976;28;20109;-67
2022/01/06 00:57:32;;;;;;;6.68;2.10;;;;;;;;;;4953797;28;20098;-67
2022/01/06 00:59:59;;;;;;;7.95;2.75;;;;;;;;;;4953794;28;20101;-67
2022/01/06 01:02:25;;;;;;;9.65;2.85;;;;;;;;;;4953816;28;20102;-67
2022/01/06 01:04:52;;;;;;;7.30;2.75;;;;;;;;;;4953665;28;20426;-67
2022/01/06 01:07:19;;;;;;;10.77;3.38;;;;;;;;;;4953929;28;20051;-67
2022/01/06 01:09:45;;;;;;;6.47;2.50;;;;;;;;;;4953767;28;20044;-68
2022/01/06 01:12:12;;;;;;;8.10;2.20;;;;;;;;;;4953657;28;20103;-67
2022/01/06 01:15:04;;;;;;;11.18;2.55;;;;;;;;;;4953656;28;20117;-67
2022/01/06 01:17:28;;;;;;;6.68;2.75;;;;;;;;;;4953671;28;20098;-67
2022/01/06 01:19:55;;;;;;;7.75;2.75;;;;;;;;;;4953564;28;20095;-68
2022/01/06 01:22:22;;;;;;;6.60;2.85;;;;;;;;;;4953639;28;20047;-67
2022/01/06 01:24:48;;;;;;;6.00;2.70;;;;;;;;;;4953554;28;20109;-68
2022/01/06 01:27:20;;;;;;;6.00;2.15;;;;;;;;;;4953777;29;20048;-67
2022/01/06 01:30:04;;;;;;;6.38;2.60;;;;;;;;;;4953838;28;20487;-68
2022/01/06 01:32:34;;;;;;;8.88;2.83;;;;;;;;;;4953315;28;20110;-67
2022/01/06 01:35:01;;;;;;;5.25;3.13;;;;;;;;;;4953555;28;20146;-68
2022/01/06 01:37:29;;;;;;;8.68;2.80;;;;;;;;;;4953425;28;20103;-68
2022/01/06 01:39:55;;;;;;;11.13;3.35;;;;;;;;;;4953380;28;20399;-67
2022/01/06 01:42:22;;;;;;;8.48;2.65;;;;;;;;;;4953379;28;20494;-67
2022/01/06 01:44:51;;;;;;;8.85;2.45;;;;;;;;;;4953293;28;20055;-67
2022/01/06 01:47:38;;;;;;;5.75;2.60;;;;;;;;;;4953611;29;20055;-67
2022/01/06 01:50:12;;;;;;;5.38;2.50;;;;;;;;;;4953444;28;20047;-67
2022/01/06 01:52:41;;;;;;;9.90;2.88;;;;;;;;;;4954268;29;20051;-67
2022/01/06 01:55:08;;;;;;;9.35;3.10;;;;;;;;;;4951528;28;20055;-67
2022/01/06 01:57:35;;;;;;;9.63;2.70;;;;;;;;;;4952173;28;20462;-68
2022/01/06 02:00:08;;;;;;;7.68;3.03;;;;;;;;;;4953157;29;20047;-67
2022/01/06 02:02:34;;;;;;;5.22;2.60;;;;;;;;;;4953292;28;20470;-68
2022/01/06 02:05:01;;;;;;;8.82;2.80;;;;;;;;;;4952863;29;20055;-68
2022/01/06 02:07:28;;;;;;;7.38;2.72;;;;;;;;;;4953370;28;20055;-67
2022/01/06 02:09:54;;;;;;;9.20;2.65;;;;;;;;;;4956705;28;20055;-68
2022/01/06 02:12:25;;;;;;;5.30;2.53;;;;;;;;;;4956924;29;20051;-67
2022/01/06 02:14:52;;;;;;;10.63;4.45;;;;;;;;;;4956778;28;20493;-68
2022/01/06 02:17:19;;;;;;;8.00;3.15;;;;;;;;;;4956733;29;20059;-67
2022/01/06 02:20:04;;;;;;;10.10;2.80;;;;;;;;;;4956717;28;20098;-67
2022/01/06 02:22:31;;;;;;;9.88;3.28;;;;;;;;;;4956598;28;20086;-67
2022/01/06 02:25:13;;;;;;;5.53;3.10;;;;;;;;;;4956690;28;20396;-67
2022/01/06 02:27:39;;;;;;;6.88;3.50;;;;;;;;;;4955626;29;20106;-67
2022/01/06 02:30:07;;;;;;;8.07;3.55;;;;;;;;;;4956562;28;20051;-67
2022/01/06 02:32:34;;;;;;;7.68;3.55;;;;;;;;;;4956260;28;20106;-67
2022/01/06 02:35:20;;;;;;;8.88;3.67;;;;;;;;;;4956408;28;20534;-68
2022/01/06 02:37:47;;;;;;;6.53;3.10;;;;;;;;;;4956433;29;20047;-67
2022/01/06 02:40:16;;;;;;;9.70;2.70;;;;;;;;;;4956312;28;20106;-67
2022/01/06 02:42:45;;;;;;;11.55;2.88;;;;;;;;;;4956325;28;20110;-67
2022/01/06 02:45:12;;;;;;;9.38;3.55;;;;;;;;;;4956184;28;20106;-67
2022/01/06 02:47:39;;;;;;;4.70;3.00;;;;;;;;;;4956255;28;20106;-67
2022/01/06 02:50:06;;;;;;;11.25;3.90;;;;;;;;;;4956418;28;20047;-67
2022/01/06 02:52:33;;;;;;;10.73;3.42;;;;;;;;;;4956059;28;20118;-67
2022/01/06 02:54:59;;;;;;;6.60;2.90;;;;;;;;;;4956273;28;20051;-66
2022/01/06 02:57:26;;;;;;;8.27;3.20;;;;;;;;;;4955992;29;20051;-67
2022/01/06 02:59:53;;;;;;;7.68;2.70;;;;;;;;;;4955921;29;20554;-67
2022/01/06 03:02:19;;;;;;;6.25;2.97;;;;;;;;;;4955934;29;20051;-67
2022/01/06 03:04:46;;;;;;;5.43;2.33;;;;;;;;;;4955927;28;20051;-67
2022/01/06 03:07:12;;;;;;;5.20;2.83;;;;;;;;;;4955831;29;20489;-67
2022/01/06 03:09:41;;;;;;;9.20;3.22;;;;;;;;;;4955915;28;20094;-67
2022/01/06 03:12:18;;;;;;;9.30;2.45;;;;;;;;;;4955591;28;20058;-67
2022/01/06 03:14:45;;;;;;;11.85;2.58;;;;;;;;;;4955679;28;20051;-67
2022/01/06 03:17:12;;;;;;;8.82;2.67;;;;;;;;;;4955631;28;20059;-68
2022/01/06 03:19:40;;;;;;;5.18;2.45;;;;;;;;;;4937306;29;20072;-68
2022/01/06 03:22:06;;;;;;;7.85;2.53;;;;;;;;;;4936345;29;20055;-68
2022/01/06 03:24:33;;;;;;;6.65;2.58;;;;;;;;;;4935231;29;20511;-67
2022/01/06 03:27:00;;;;;;;6.10;2.55;;;;;;;;;;4936277;29;20139;-67
2022/01/06 03:29:27;;;;;;;6.93;2.75;;;;;;;;;;4936420;29;20044;-67
2022/01/06 03:31:53;;;;;;;9.43;2.70;;;;;;;;;;4961954;23;20356;-67
2022/01/06 03:34:20;;;;;;;7.85;3.15;;;;;;;;;;4954363;28;20634;-68
2022/01/06 03:36:46;;;;;;;6.30;2.80;;;;;;;;;;4955514;28;20473;-66
2022/01/06 03:39:13;;;;;;;7.70;2.80;;;;;;;;;;4955256;28;20047;-66
2022/01/06 03:41:40;;;;;;;8.55;3.13;;;;;;;;;;4957273;28;20498;-67
2022/01/06 03:44:06;;;;;;;7.55;3.22;;;;;;;;;;4974682;28;20047;-66
2022/01/06 03:46:33;;;;;;;6.30;3.17;;;;;;;;;;4968641;28;20481;-67
2022/01/06 03:49:00;;;;;;;5.97;3.38;;;;;;;;;;4955021;29;20108;-68
2022/01/06 03:51:26;;;;;;;7.15;2.67;;;;;;;;;;4955196;28;20055;-67
2022/01/06 03:53:53;;;;;;;8.07;3.13;;;;;;;;;;4955040;28;20055;-67
2022/01/06 03:56:20;;;;;;;7.25;3.08;;;;;;;;;;4955149;29;20063;-67
2022/01/06 03:58:48;;;;;;;6.70;2.72;;;;;;;;;;4954874;28;20470;-67
2022/01/06 04:01:16;;;;;;;9.57;2.80;;;;;;;;;;4965357;28;20501;-66
2022/01/06 04:03:45;;;;;;;4.93;2.67;;;;;;;;;;4974056;28;20054;-66
2022/01/06 04:06:12;;;;;;;6.65;3.08;;;;;;;;;;4974092;28;20106;-67
2022/01/06 04:08:38;;;;;;;8.63;2.75;;;;;;;;;;4972966;28;20078;-67
2022/01/06 04:11:05;;;;;;;5.43;2.90;;;;;;;;;;4973990;28;20074;-67
2022/01/06 04:13:33;;;;;;;5.85;2.90;;;;;;;;;;4971019;28;20047;-67
2022/01/06 04:16:03;;;;;;;8.82;3.00;;;;;;;;;;4954573;28;20055;-66
2022/01/06 04:18:29;;;;;;;9.65;2.55;;;;;;;;;;4954718;28;20134;-66
2022/01/06 04:20:56;;;;;;;5.75;2.60;;;;;;;;;;4954164;29;20098;-66
2022/01/06 04:23:22;;;;;;;6.50;2.85;;;;;;;;;;4954356;28;20495;-67
2022/01/06 04:25:49;;;;;;;7.20;2.72;;;;;;;;;;4954552;28;20118;-67
2022/01/06 04:28:16;;;;;;;6.35;3.13;;;;;;;;;;4954323;29;20486;-66
2022/01/06 04:30:43;;;;;;;7.35;2.83;;;;;;;;;;4954222;28;20043;-68
2022/01/06 04:33:09;;;;;;;7.30;3.00;;;;;;;;;;4954078;28;20295;-67
2022/01/06 04:35:36;;;;;;;6.22;3.17;;;;;;;;;;4954433;28;20059;-66
2022/01/06 04:38:02;;;;;;;5.75;3.10;;;;;;;;;;4954373;29;20122;-67
2022/01/06 04:40:29;;;;;;;4.88;2.53;;;;;;;;;;4954274;28;20043;-66
2022/01/06 04:42:56;;;;;;;7.43;3.05;;;;;;;;;;4967953;28;20231;-67
2022/01/06 04:45:22;;;;;;;7.18;3.30;;;;;;;;;;4973507;28;20055;-66
2022/01/06 04:47:49;;;;;;;9.88;3.00;;;;;;;;;;4973419;28;20054;-66
2022/01/06 04:50:15;;;;;;;10.77;3.65;;;;;;;;;;4973399;28;20490;-66
2022/01/06 04:52:42;;;;;;;4.15;2.83;;;;;;;;;;4973191;28;20102;-66
2022/01/06 04:55:10;;;;;;;7.22;3.28;;;;;;;;;;4964195;28;20109;-66
2022/01/06 04:57:36;;;;;;;9.60;3.10;;;;;;;;;;4954009;28;20050;-66
2022/01/06 05:00:06;;;;;;;9.00;3.38;;;;;;;;;;4953880;29;20051;-66
2022/01/06 05:02:32;;;;;;;8.65;3.25;;;;;;;;;;4953747;28;20597;-66
2022/01/06 05:04:59;;;;;;;6.38;2.97;;;;;;;;;;4953839;28;20134;-66
2022/01/06 05:07:26;;;;;;;7.68;3.97;;;;;;;;;;4953834;29;20639;-67
2022/01/06 05:09:52;;;;;;;9.05;2.85;;;;;;;;;;4953807;28;20047;-68
2022/01/06 05:12:19;;;;;;;10.48;3.05;;;;;;;;;;4952512;29;20498;-67
2022/01/06 05:14:46;;;;;;;5.13;3.10;;;;;;;;;;4953251;28;20494;-67
2022/01/06 05:17:12;;;;;;;8.93;2.95;;;;;;;;;;4953782;29;20498;-67
2022/01/06 05:19:39;;;;;;;8.70;3.15;;;;;;;;;;4953758;28;20051;-65
2022/01/06 05:22:06;;;;;;;6.70;3.13;;;;;;;;;;4960364;28;20125;-67
2022/01/06 05:24:35;;;;;;;7.03;2.97;;;;;;;;;;4972796;28;20051;-67
2022/01/06 05:27:02;;;;;;;5.63;3.00;;;;;;;;;;4972972;28;20478;-66
2022/01/06 05:29:29;;;;;;;7.47;3.15;;;;;;;;;;4972906;28;20486;-67
2022/01/06 05:31:56;;;;;;;10.82;3.30;;;;;;;;;;4972775;28;20050;-66
2022/01/06 05:34:22;;;;;;;8.27;3.65;;;;;;;;;;4971112;28;20056;-67
2022/01/06 05:36:49;;;;;;;6.57;2.80;;;;;;;;;;4952071;29;20098;-67
2022/01/06 05:39:16;;;;;;;10.52;3.28;;;;;;;;;;4953286;28;20051;-65
2022/01/06 05:41:43;;;;;;;8.48;2.90;;;;;;;;;;4953580;28;20043;-66
2022/01/06 05:44:10;;;;;;;6.65;2.88;;;;;;;;;;4955663;28;20055;-66
2022/01/06 05:46:37;;;;;;;8.90;3.00;;;;;;;;;;4957397;28;20565;-66
2022/01/06 05:49:03;;;;;;;6.57;3.00;;;;;;;;;;4957377;28;20047;-67
2022/01/06 05:51:30;;;;;;;7.82;3.20;;;;;;;;;;4957439;28;20466;-66
2022/01/06 05:53:57;;;;;;;8.38;2.72;;;;;;;;;;4957284;28;20051;-66
2022/01/06 05:56:24;;;;;;;14.45;4.15;;;;;;;;;;4957518;28;20055;-66
2022/01/06 05:58:50;;;;;;;4.80;2.80;;;;;;;;;;4972605;28;20047;-65
2022/01/06 06:01:17;;;;;;;5.45;2.53;;;;;;;;;;4957131;28;20429;-67
2022/01/06 06:03:44;;;;;;;8.65;3.63;;;;;;;;;;4955744;29;20216;-66
2022/01/06 06:06:10;;;;;;;6.85;2.90;;;;;;;;;;4956847;28;20058;-66
2022/01/06 06:08:38;;;;;;;9.85;3.03;;;;;;;;;;4956996;28;20055;-66
2022/01/06 06:11:04;;;;;;;8.05;3.30;;;;;;;;;;4956969;28;20478;-66
2022/01/06 06:13:31;;;;;;;8.98;3.00;;;;;;;;;;4956867;28;20063;-67
2022/01/06 06:15:58;;;;;;;13.05;3.15;;;;;;;;;;4956809;28;20052;-67
2022/01/06 06:18:25;;;;;;;7.35;2.92;;;;;;;;;;4955617;29;20536;-65
2022/01/06 06:20:52;;;;;;;8.90;3.60;;;;;;;;;;4956727;28;20051;-67
2022/01/06 06:23:19;;;;;;;5.57;2.78;;;;;;;;;;4961304;28;20109;-66
2022/01/06 06:25:45;;;;;;;11.80;3.85;;;;;;;;;;4976147;28;20046;-66
2022/01/06 06:28:12;;;;;;;8.82;3.17;;;;;;;;;;4975910;28;20047;-66
2022/01/06 06:30:38;;;;;;;8.18;3.03;;;;;;;;;;4976299;28;20090;-67
2022/01/06 06:33:05;;;;;;;9.23;3.50;;;;;;;;;;4975477;28;20105;-66
2022/01/06 06:35:32;;;;;;;8.77;3.80;;;;;;;;;;4975929;28;20096;-67
2022/01/06 06:37:59;;;;;;;13.65;3.35;;;;;;;;;;4975653;28;20097;-67
2022/01/06 06:40:25;;;;;;;9.05;3.25;;;;;;;;;;4971167;28;20039;-66
2022/01/06 06:42:52;;;;;;;7.97;3.75;;;;;;;;;;4966840;28;20049;-66
2022/01/06 06:45:19;;;;;;;6.63;3.10;;;;;;;;;;4975714;28;20109;-67
2022/01/06 06:47:46;;;;;;;7.30;3.58;;;;;;;;;;4975879;28;20047;-66
2022/01/06 06:50:15;;;;;;;6.30;3.30;;;;;;;;;;4975776;28;20047;-66
2022/01/06 06:52:43;;;;;;;7.65;3.20;;;;;;;;;;4975693;28;20468;-66
2022/01/06 06:55:11;;;;;;;9.50;3.17;;;;;;;;;;4975392;28;20047;-65
2022/01/06 06:57:38;;;;;;;11.65;4.28;;;;;;;;;;4975339;28;20051;-64
2022/01/06 07:00:06;;;;;;;12.40;4.28;;;;;;;;;;4975270;28;20548;-66
2022/01/06 07:02:33;;;;;;;9.48;3.97;;;;;;;;;;4975208;28;20469;-67
2022/01/06 07:05:00;;;;;;;7.97;3.60;;;;;;;;;;4975223;28;20556;-65
2022/01/06 07:07:26;;;;;;;11.00;3.35;;;;;;;;;;4975270;28;20101;-66
2022/01/06 07:09:53;;;;;;;10.70;4.22;;;;;;;;;;4958919;28;20047;-66
2022/01/06 07:12:20;;;;;;;10.35;4.15;;;;;;;;;;4953603;29;20470;-66
2022/01/06 07:14:46;;;;;;;8.20;3.58;;;;;;;;;;4953635;28;20051;-65
2022/01/06 07:17:13;;;;;;;6.32;3.63;;;;;;;;;;4953908;29;20051;-66
2022/01/06 07:19:40;;;;;;;8.60;4.00;;;;;;;;;;4953719;29;20445;-65
2022/01/06 07:22:06;;;;;;;9.18;3.97;;;;;;;;;;4955358;28;20047;-64
2022/01/06 07:24:34;;;;;;;12.52;4.25;;;;;;;;;;4972480;28;20054;-66
2022/01/06 07:27:01;;;;;;;11.70;3.92;;;;;;;;;;4972855;28;20540;-66
2022/01/06 07:29:28;;;;;;;12.00;3.83;;;;;;;;;;4973003;28;20086;-65
2022/01/06 07:31:55;;;;;;;10.30;4.10;;;;;;;;;;4972880;28;20101;-64
2022/01/06 07:34:21;;;;;;;12.82;6.90;;;;;;;;;;4972853;28;20054;-66
2022/01/06 07:36:48;;;;;;;14.45;6.13;;;;;;;;;;4965244;28;20510;-66
2022/01/06 07:39:14;;;;;;;12.35;4.10;;;;;;;;;;4952858;29;20051;-66
2022/01/06 07:41:41;;;;;;;15.82;6.32;;;;;;;;;;4953299;28;20047;-65
2022/01/06 07:44:08;;;;;;;11.35;5.68;;;;;;;;;;4953119;29;20055;-65
2022/01/06 07:46:35;;;;;;;11.00;5.50;;;;;;;;;;4952178;29;20134;-66
2022/01/06 07:49:02;;;;;;;12.68;5.82;;;;;;;;;;4953146;28;20055;-66
2022/01/06 07:51:31;;;;;;;11.93;5.55;;;;;;;;;;4952994;28;20483;-65
2022/01/06 07:54:01;;;;;;;12.85;5.50;;;;;;;;;;4952947;28;20055;-65
2022/01/06 07:56:27;;;;;;;13.30;5.28;;;;;;;;;;4940400;28;20047;-68
2022/01/06 07:58:54;;;;;;;17.17;4.60;;;;;;;;;;4943209;28;20458;-69
2022/01/06 08:01:21;;;;;;;12.27;4.93;;;;;;;;;;4940683;29;20059;-68
2022/01/06 08:03:48;;;;;;;8.07;3.88;;;;;;;;;;4938103;28;20057;-68
2022/01/06 08:06:15;;;;;;;12.18;5.00;;;;;;;;;;4942199;28;20122;-67
2022/01/06 08:08:42;;;;;;;12.75;4.50;;;;;;;;;;4938265;29;20068;-68
2022/01/06 08:11:09;;;;;;;15.50;5.32;;;;;;;;;;4937892;29;20521;-68
2022/01/06 08:13:36;;;;;;;11.45;4.60;;;;;;;;;;4938445;29;20407;-68
2022/01/06 08:16:03;;;;;;;11.98;4.93;;;;;;;;;;4947520;28;20111;-68
2022/01/06 08:18:30;;;;;;;11.20;5.18;;;;;;;;;;4940327;28;20058;-67
2022/01/06 08:20:56;;;;;;;12.80;5.28;;;;;;;;;;4937372;29;20553;-68
2022/01/06 08:23:23;;;;;;;7.40;3.95;;;;;;;;;;4938785;29;20055;-69
2022/01/06 08:25:50;;;;;;;14.65;5.05;;;;;;;;;;4939438;28;20051;-69
2022/01/06 08:28:16;;;;;;;8.07;4.50;;;;;;;;;;4938791;29;20715;-68
2022/01/06 08:30:43;;;;;;;10.05;4.25;;;;;;;;;;4938802;28;20054;-67
2022/01/06 08:33:09;;;;;;;13.73;4.18;;;;;;;;;;4941092;28;20503;-67
2022/01/06 08:35:36;;;;;;;15.40;5.45;;;;;;;;;;4938158;28;20099;-67
2022/01/06 08:38:03;;;;;;;15.00;4.40;;;;;;;;;;4939439;29;20059;-68
2022/01/06 08:40:31;;;;;;;9.02;4.40;;;;;;;;;;4937833;28;20114;-69
2022/01/06 08:42:57;;;;;;;10.63;5.32;;;;;;;;;;4938523;29;20048;-68
2022/01/06 08:45:24;;;;;;;14.10;4.80;;;;;;;;;;4937776;29;20048;-70
2022/01/06 08:47:50;;;;;;;10.68;4.88;;;;;;;;;;4939227;28;20094;-68
2022/01/06 08:50:17;;;;;;;12.40;4.45;;;;;;;;;;4938040;29;20055;-68
2022/01/06 08:52:44;;;;;;;11.27;4.78;;;;;;;;;;4944557;28;20451;-68
2022/01/06 08:55:10;;;;;;;14.98;4.93;;;;;;;;;;4937857;29;20130;-67
2022/01/06 08:57:38;;;;;;;11.07;4.88;;;;;;;;;;4939540;28;20050;-67
2022/01/06 09:00:07;;;;;;;12.13;5.03;;;;;;;;;;4940686;28;20063;-66
2022/01/06 09:02:33;;;;;;;14.23;5.97;;;;;;;;;;4938035;29;20099;-66
2022/01/06 09:05:02;;;;;;;12.32;5.20;;;;;;;;;;4938251;29;20109;-69
2022/01/06 09:07:29;;;;;;;12.63;5.05;;;;;;;;;;4938377;28;20131;-69
2022/01/06 09:09:55;;;;;;;9.70;4.72;;;;;;;;;;4938958;28;20051;-66
2022/01/06 09:12:22;;;;;;;16.30;5.40;;;;;;;;;;4938059;29;20510;-66
2022/01/06 09:14:49;;;;;;;10.98;4.97;;;;;;;;;;4939142;29;20459;-66
2022/01/06 09:17:15;;;;;;;15.63;6.00;;;;;;;;;;4936213;28;20114;-66
2022/01/06 09:19:42;;;;;;;12.10;5.55;;;;;;;;;;4939757;28;20055;-68
2022/01/06 09:22:09;;;;;;;16.77;6.75;;;;;;;;;;4935947;28;20458;-66
2022/01/06 09:24:36;;;;;;;13.45;5.38;;;;;;;;;;4939565;28;20047;-66
2022/01/06 09:27:03;;;;;;;13.57;5.60;;;;;;;;;;4937812;29;20056;-66
2022/01/06 09:29:29;;;;;;;10.35;4.70;;;;;;;;;;4939036;29;20051;-67
2022/01/06 09:31:56;;;;;;;16.45;5.70;;;;;;;;;;4939177;29;20051;-68
2022/01/06 09:34:22;;;;;;;13.38;5.43;;;;;;;;;;4977950;23;20043;-71
2022/01/06 09:36:49;;;;;;;13.95;5.88;;;;;;;;;;4959083;28;20058;-71
2022/01/06 09:39:16;;;;;;;15.30;6.55;;;;;;;;;;4979193;28;20059;-72
2022/01/06 09:41:42;;;;;;;14.30;5.78;;;;;;;;;;4961117;28;20094;-70
2022/01/06 09:44:09;;;;;;;12.82;4.88;;;;;;;;;;4979008;28;20117;-71
2022/01/06 09:46:56;;;;;;;10.07;4.25;;;;;;;;;;4972897;28;20084;-71
2022/01/06 09:49:23;;;;;;;8.35;4.13;;;;;;;;;;4981187;28;20052;-70
2022/01/06 09:51:51;;;;;;;11.48;4.65;;;;;;;;;;4980855;28;20050;-71
2022/01/06 09:54:18;;;;;;;15.80;5.72;;;;;;;;;;4977875;28;20082;-71
2022/01/06 09:56:45;;;;;;;13.20;4.97;;;;;;;;;;4978809;28;20072;-71
2022/01/06 09:59:11;;;;;;;8.13;5.32;;;;;;;;;;4986745;28;20553;-71
2022/01/06 10:01:38;;;;;;;12.38;5.60;;;;;;;;;;4978093;28;20039;-71
2022/01/06 10:04:27;;;;;;;11.93;5.28;;;;;;;;;;4978656;28;20460;-71
2022/01/06 10:07:05;;;;;;;8.10;4.57;;;;;;;;;;4987007;28;20101;-71
2022/01/06 10:09:34;;;;;;;13.45;4.30;;;;;;;;;;4985735;28;20108;-70
2022/01/06 10:12:08;;;;;;;8.68;3.70;;;;;;;;;;4987737;28;20050;-71
2022/01/06 10:14:42;;;;;;;8.57;4.25;;;;;;;;;;4977794;28;20469;-71
2022/01/06 10:17:14;;;;;;;10.60;4.68;;;;;;;;;;4986174;28;20066;-71
2022/01/06 10:19:42;;;;;;;12.38;4.15;;;;;;;;;;4983555;28;20051;-72
2022/01/06 10:22:19;;;;;;;11.75;3.90;;;;;;;;;;4977523;28;20047;-71
2022/01/06 10:24:47;;;;;;;10.35;3.80;;;;;;;;;;4982861;28;20046;-69
2022/01/06 10:27:16;;;;;;;11.63;4.13;;;;;;;;;;4986113;28;20050;-70
2022/01/06 10:29:46;;;;;;;9.15;3.35;;;;;;;;;;4987816;28;20489;-74
2022/01/06 10:32:14;;;;;;;11.05;3.63;;;;;;;;;;4975145;28;20120;-70
2022/01/06 10:34:48;;;;;;;10.55;3.28;;;;;;;;;;4979744;28;20109;-71
2022/01/06 10:37:25;;;;;;;11.32;3.03;;;;;;;;;;4982085;28;20050;-70
2022/01/06 10:39:54;;;;;;;8.68;3.30;;;;;;;;;;4982166;28;20043;-73
2022/01/06 10:42:26;;;;;;;10.35;3.58;;;;;;;;;;4983203;28;20105;-70
2022/01/06 10:44:57;;;;;;;5.30;2.72;;;;;;;;;;4981583;28;20061;-71
2022/01/06 10:47:38;;;;;;;9.10;2.65;;;;;;;;;;4981331;28;20063;-71
2022/01/06 10:50:16;;;;;;;11.98;3.00;;;;;;;;;;4980169;28;20395;-72
2022/01/06 10:53:07;;;;;;;9.95;3.58;;;;;;;;;;4985493;28;20046;-71
2022/01/06 10:55:39;;;;;;;7.22;3.20;;;;;;;;;;4982715;28;20105;-71
2022/01/06 10:58:09;;;;;;;5.43;2.40;;;;;;;;;;4979946;28;20113;-71
2022/01/06 11:00:36;;;;;;;8.68;2.60;;;;;;;;;;4980949;28;20046;-70
2022/01/06 11:03:17;;;;;;;10.02;2.80;;;;;;;;;;4984447;28;20141;-71
2022/01/06 11:05:46;;;;;;;9.13;2.90;;;;;;;;;;4994449;28;20054;-71
2022/01/06 11:08:16;;;;;;;10.40;2.53;;;;;;;;;;4989502;28;20105;-70
2022/01/06 11:10:49;;;;;;;12.00;2.72;;;;;;;;;;4981908;28;20469;-68
2022/01/06 11:13:17;;;;;;;6.32;2.30;;;;;;;;;;4981912;28;20101;-70
2022/01/06 11:15:44;;;;;;;11.10;2.92;;;;;;;;;;4984112;28;20105;-72
2022/01/06 11:18:16;;;;;;;16.17;3.35;;;;;;;;;;4987850;28;20057;-72
2022/01/06 11:20:43;;;;;;;10.13;2.60;;;;;;;;;;4974641;28;20382;-71
2022/01/06 11:23:19;;;;;;;12.45;2.67;;;;;;;;;;4984443;28;20410;-68
2022/01/06 11:26:18;;;;;;;11.07;2.40;;;;;;;;;;4982893;28;20047;-73
2022/01/06 11:29:00;;;;;;;8.15;2.70;;;;;;;;;;4977053;28;20061;-72
2022/01/06 11:31:28;;;;;;;9.27;2.30;;;;;;;;;;4987465;28;20137;-74
2022/01/06 11:33:56;;;;;;;9.90;2.97;;;;;;;;;;4983902;28;20505;-72
2022/01/06 11:36:30;;;;;;;9.93;2.47;;;;;;;;;;4989522;28;20104;-74
2022/01/06 11:38:59;;;;;;;8.20;2.50;;;;;;;;;;4983681;28;20461;-73
2022/01/06 11:41:39;;;;;;;9.70;2.38;;;;;;;;;;4968231;28;20043;-73
2022/01/06 11:44:19;;;;;;;9.65;2.42;;;;;;;;;;4980380;28;20077;-73
2022/01/06 11:46:47;;;;;;;10.48;2.45;;;;;;;;;;4990297;28;20497;-71
2022/01/06 11:49:14;;;;;;;11.93;1.98;;;;;;;;;;4990364;28;21220;-72
2022/01/06 11:51:42;;;;;;;9.20;2.10;;;;;;;;;;4984412;28;20050;-73
2022/01/06 11:54:19;;;;;;;8.45;2.00;;;;;;;;;;4985765;28;20055;-72
2022/01/06 11:56:50;;;;;;;8.07;1.92;;;;;;;;;;4981148;28;20046;-71
2022/01/06 11:59:30;;;;;;;6.53;2.08;;;;;;;;;;4979596;28;20050;-71
2022/01/06 12:01:57;;;;;;;8.73;2.22;;;;;;;;;;4982060;28;20482;-69
2022/01/06 12:04:25;;;;;;;9.55;2.67;;;;;;;;;;4976939;28;20050;-68
2022/01/06 12:07:12;;;;;;;7.07;1.85;;;;;;;;;;4986138;28;20050;-68
2022/01/06 12:09:39;;;;;;;8.55;2.15;;;;;;;;;;4981135;28;20046;-67
2022/01/06 12:12:07;;;;;;;6.28;2.00;;;;;;;;;;4976136;28;20457;-68
2022/01/06 12:14:34;;;;;;;10.35;2.75;;;;;;;;;;4978663;28;20282;-67
2022/01/06 12:17:08;;;;;;;7.13;1.98;;;;;;;;;;4984416;28;20082;-70
2022/01/06 12:19:35;;;;;;;10.82;2.03;;;;;;;;;;4978739;28;20494;-69
2022/01/06 12:22:04;;;;;;;10.27;2.25;;;;;;;;;;4982017;28;20113;-70
2022/01/06 12:24:31;;;;;;;13.20;3.95;;;;;;;;;;4979297;28;20522;-70
2022/01/06 12:27:02;;;;;;;9.60;2.55;;;;;;;;;;4981134;28;20141;-70
2022/01/06 12:29:29;;;;;;;8.68;2.78;;;;;;;;;;4977952;28;20050;-69
2022/01/06 12:32:04;;;;;;;10.05;3.00;;;;;;;;;;4967964;28;20042;-68
2022/01/06 12:34:31;;;;;;;6.53;2.30;;;;;;;;;;4980956;28;20054;-70
2022/01/06 12:36:57;;;;;;;7.75;2.55;;;;;;;;;;4977272;28;20136;-69
2022/01/06 12:39:24;;;;;;;6.32;1.50;;;;;;;;;;4979576;28;20058;-68
2022/01/06 12:41:51;;;;;;;10.23;3.15;;;;;;;;;;4979369;28;20058;-68
2022/01/06 12:44:24;;;;;;;5.93;1.42;;;;;;;;;;4982968;28;20077;-68
2022/01/06 12:46:51;;;;;;;11.05;2.42;;;;;;;;;;4979514;28;20065;-67
2022/01/06 12:49:20;;;;;;;9.57;2.15;;;;;;;;;;4976482;28;20055;-69
2022/01/06 12:51:47;;;;;;;8.15;2.40;;;;;;;;;;4979371;28;20457;-68
2022/01/06 12:54:21;;;;;;;8.60;2.17;;;;;;;;;;4982397;28;20055;-71
2022/01/06 12:56:55;;;;;;;9.43;1.60;;;;;;;;;;4987873;28;20046;-69
2022/01/06 12:59:41;;;;;;;6.25;2.30;;;;;;;;;;4977915;28;20054;-68
2022/01/06 13:02:12;;;;;;;9.60;2.20;;;;;;;;;;4977111;28;20461;-68
2022/01/06 13:04:41;;;;;;;12.30;1.98;;;;;;;;;;4978350;28;20050;-68
2022/01/06 13:07:13;;;;;;;7.13;1.80;;;;;;;;;;4975655;28;20053;-68
2022/01/06 13:09:40;;;;;;;7.30;2.10;;;;;;;;;;4977555;28;20058;-69
2022/01/06 13:12:09;;;;;;;12.35;2.88;;;;;;;;;;4977106;28;20054;-70
2022/01/06 13:14:37;;;;;;;6.93;1.65;;;;;;;;;;4977476;28;20050;-68
2022/01/06 13:17:23;;;;;;;7.07;2.60;;;;;;;;;;4979754;28;20058;-69
2022/01/06 13:19:58;;;;;;;10.40;2.53;;;;;;;;;;4975785;28;20054;-70
2022/01/06 13:25:33;;;;;;;8.10;2.55;;;;;;;;;;4977052;28;20050;-67
2022/01/06 13:28:11;;;;;;;7.20;2.10;;;;;;;;;;4976915;28;20470;-68
2022/01/06 13:30:48;;;;;;;6.70;2.03;;;;;;;;;;4982748;28;20513;-68
2022/01/06 13:33:17;;;;;;;11.20;3.35;;;;;;;;;;4979110;28;20058;-67
2022/01/06 13:35:56;;;;;;;12.70;2.67;;;;;;;;;;4977839;28;20082;-68
2022/01/06 13:38:28;;;;;;;10.57;2.53;;;;;;;;;;4977563;28;20096;-68
2022/01/06 13:40:58;;;;;;;7.97;2.10;;;;;;;;;;4980817;28;20096;-68
2022/01/06 13:43:27;;;;;;;7.10;2.17;;;;;;;;;;4977142;28;20043;-68
2022/01/06 13:46:06;;;;;;;7.38;2.55;;;;;;;;;;4977687;28;20098;-68
2022/01/06 13:48:43;;;;;;;7.43;2.30;;;;;;;;;;4986196;28;20046;-68
2022/01/06 13:51:15;;;;;;;9.85;2.15;;;;;;;;;;4976832;28;20062;-69
2022/01/06 13:53:53;;;;;;;6.57;2.33;;;;;;;;;;4975273;28;20093;-68
2022/01/06 13:56:32;;;;;;;11.73;2.22;;;;;;;;;;4984997;28;20170;-70
2022/01/06 13:59:10;;;;;;;8.50;2.15;;;;;;;;;;4977177;28;20129;-68
2022/01/06 14:01:38;;;;;;;7.65;2.25;;;;;;;;;;4990428;28;20539;-68
2022/01/06 14:04:06;;;;;;;11.23;2.53;;;;;;;;;;4977208;28;20105;-69
2022/01/06 14:06:34;;;;;;;9.90;2.25;;;;;;;;;;4983941;28;20054;-68
2022/01/06 14:09:02;;;;;;;6.85;2.28;;;;;;;;;;4983554;28;20050;-70
2022/01/06 14:11:29;;;;;;;10.98;2.13;;;;;;;;;;4979963;28;20047;-68
2022/01/06 14:13:56;;;;;;;9.93;3.40;;;;;;;;;;4985180;28;20051;-68
2022/01/06 14:16:23;;;;;;;7.35;2.50;;;;;;;;;;4984096;28;20054;-68
2022/01/06 14:18:50;;;;;;;12.23;2.60;;;;;;;;;;4984123;28;20077;-67
2022/01/06 14:21:17;;;;;;;6.20;2.50;;;;;;;;;;4980102;28;20060;-67
2022/01/06 14:23:44;;;;;;;9.52;2.35;;;;;;;;;;4983207;28;20046;-67
2022/01/06 14:26:11;;;;;;;8.43;2.42;;;;;;;;;;4985180;28;20441;-66
2022/01/06 14:28:38;;;;;;;14.23;3.58;;;;;;;;;;4977853;28;20047;-67
2022/01/06 14:31:06;;;;;;;15.73;3.45;;;;;;;;;;4984301;28;20556;-67
2022/01/06 14:33:34;;;;;;;10.07;3.17;;;;;;;;;;4978128;28;20113;-66
2022/01/06 14:36:01;;;;;;;12.07;3.15;;;;;;;;;;4982996;28;20439;-67
2022/01/06 14:38:39;;;;;;;15.15;3.08;;;;;;;;;;4979212;28;20050;-68
2022/01/06 14:41:05;;;;;;;13.18;3.95;;;;;;;;;;4981937;28;20058;-66
2022/01/06 14:43:32;;;;;;;12.27;3.53;;;;;;;;;;4977428;28;20490;-66
2022/01/06 14:46:00;;;;;;;11.18;4.32;;;;;;;;;;4983200;28;20050;-67
2022/01/06 14:48:27;;;;;;;9.57;2.97;;;;;;;;;;4979984;28;20061;-67
2022/01/06 14:50:54;;;;;;;10.32;3.38;;;;;;;;;;4981575;28;20509;-67
2022/01/06 14:53:20;;;;;;;8.18;3.20;;;;;;;;;;4980520;28;20299;-69
2022/01/06 14:55:47;;;;;;;13.32;3.20;;;;;;;;;;4980328;28;20387;-67
2022/01/06 14:58:14;;;;;;;13.35;3.90;;;;;;;;;;4981329;28;20046;-67